Time;durP1;ratioP1;P1;durP2;ratioP2;P2;SDS_P1;SDS_P2;PMS_P1;PMS_P2;Temp;Humidity;BMP_temperature;BMP_pressure;BME280_temperature;BME280_humidity;BME280_pressure;Samples;Min_cycle;Max_cycle;Signal;HPM_P1;HPM_P2
2022/04/28 00:01:30;;;;;;;10.63;9.00;;;;;;;12.84;52.80;98266.06;5073449;28;20178;-70
2022/04/28 00:03:55;;;;;;;13.50;8.80;;;;;;;12.83;52.57;98256.50;5072278;28;20214;-69
2022/04/28 00:06:20;;;;;;;10.20;8.70;;;;;;;12.83;52.92;98259.97;5080109;28;20210;-70
2022/04/28 00:08:46;;;;;;;9.93;8.60;;;;;;;12.86;52.46;98259.69;5071630;28;20308;-71
2022/04/28 00:11:11;;;;;;;10.70;9.03;;;;;;;12.85;52.03;98265.09;5072295;28;20261;-71
2022/04/28 00:13:37;;;;;;;9.90;8.90;;;;;;;12.73;52.71;98265.22;5071531;28;20554;-71
2022/04/28 00:16:03;;;;;;;11.80;9.23;;;;;;;12.73;52.71;98270.50;5072199;28;20178;-70
2022/04/28 00:18:29;;;;;;;9.70;8.70;;;;;;;12.75;52.38;98263.28;5072027;28;20510;-70
2022/04/28 00:20:54;;;;;;;10.57;8.90;;;;;;;12.69;52.74;98268.28;5071665;28;20236;-70
2022/04/28 00:23:20;;;;;;;13.97;9.20;;;;;;;12.67;52.64;98270.22;5071615;28;20182;-70
2022/04/28 00:25:45;;;;;;;10.30;8.97;;;;;;;12.56;52.52;98264.13;5071607;28;20208;-70
2022/04/28 00:28:11;;;;;;;10.33;9.23;;;;;;;12.49;52.96;98263.03;5071343;28;20214;-69
2022/04/28 00:30:36;;;;;;;10.93;9.50;;;;;;;12.53;52.77;98256.56;5071337;28;20190;-70
2022/04/28 00:33:02;;;;;;;10.33;9.23;;;;;;;12.52;53.08;98265.41;5071258;28;20183;-70
2022/04/28 00:35:27;;;;;;;12.20;10.10;;;;;;;12.54;53.05;98262.63;5063816;28;20645;-69
2022/04/28 00:37:53;;;;;;;11.77;10.13;;;;;;;12.46;52.50;98262.50;5071865;28;20178;-70
2022/04/28 00:40:18;;;;;;;13.43;9.97;;;;;;;12.36;53.48;98268.56;5048528;28;20179;-70
2022/04/28 00:42:44;;;;;;;13.43;9.73;;;;;;;12.27;53.48;98259.72;5071957;28;20182;-71
2022/04/28 00:45:09;;;;;;;10.50;9.43;;;;;;;12.37;52.78;98254.44;5036516;28;20182;-71
2022/04/28 00:50:38;;;;;;;9.57;8.57;;;;;;;12.36;52.90;98257.22;5072437;28;20179;-70
2022/04/28 00:53:07;;;;;;;12.00;9.77;;;;;;;12.32;53.06;98261.09;5071327;28;20429;-70
2022/04/28 00:55:33;;;;;;;10.63;9.57;;;;;;;12.31;52.71;98256.78;5071235;28;20923;-70
2022/04/28 00:57:58;;;;;;;11.50;9.93;;;;;;;12.32;53.31;98255.84;5071364;28;20444;-70
2022/04/28 01:00:24;;;;;;;14.07;9.27;;;;;;;12.38;52.94;98266.63;5071975;28;20178;-70
2022/04/28 01:02:50;;;;;;;11.20;10.10;;;;;;;12.38;52.84;98257.94;5070660;28;20186;-70
2022/04/28 01:05:15;;;;;;;10.40;9.30;;;;;;;12.27;52.58;98253.63;5071139;28;20186;-70
2022/04/28 01:07:41;;;;;;;11.50;9.63;;;;;;;12.20;53.21;98257.78;5062977;28;20467;-71
2022/04/28 01:10:07;;;;;;;11.43;10.23;;;;;;;12.14;53.37;98256.53;5069504;28;20182;-71
2022/04/28 01:12:33;;;;;;;15.07;10.70;;;;;;;12.17;52.75;98256.22;5065715;28;20231;-70
2022/04/28 01:14:58;;;;;;;13.00;11.00;;;;;;;12.19;52.62;98253.47;5069793;28;20424;-71
2022/04/28 01:17:24;;;;;;;11.70;10.50;;;;;;;12.21;52.77;98254.19;5070913;28;20181;-71
2022/04/28 01:19:49;;;;;;;17.17;10.13;;;;;;;12.16;53.12;98251.94;5070285;28;20267;-71
2022/04/28 01:22:15;;;;;;;14.63;10.40;;;;;;;12.14;52.89;98259.16;5071130;28;20281;-70
2022/04/28 01:24:40;;;;;;;12.70;10.63;;;;;;;12.15;53.14;98260.81;5070845;28;20275;-70
2022/04/28 01:27:06;;;;;;;11.40;9.30;;;;;;;12.19;52.97;98259.56;5070972;28;20565;-70
2022/04/28 01:29:33;;;;;;;13.97;9.63;;;;;;;12.21;52.81;98260.25;5069173;28;20198;-70
2022/04/28 01:31:58;;;;;;;13.37;9.50;;;;;;;12.17;52.53;98258.84;5071224;28;20601;-71
2022/04/28 01:34:24;;;;;;;9.87;8.97;;;;;;;12.11;52.91;98257.59;5069040;28;20539;-70
2022/04/28 01:36:49;;;;;;;10.80;9.60;;;;;;;12.00;53.34;98256.91;5070902;28;20285;-69
2022/04/28 01:39:15;;;;;;;10.80;9.27;;;;;;;12.01;53.04;98261.22;5070240;28;20206;-69
2022/04/28 01:41:40;;;;;;;11.60;9.67;;;;;;;11.90;53.29;98260.34;5070678;28;20178;-69
2022/04/28 01:44:06;;;;;;;11.10;9.50;;;;;;;11.89;53.32;98265.69;5070391;28;20595;-69
2022/04/28 01:46:31;;;;;;;10.70;9.47;;;;;;;11.91;53.40;98261.97;5070171;28;20296;-69
2022/04/28 01:48:57;;;;;;;14.03;9.30;;;;;;;11.82;53.59;98258.38;5071628;28;20229;-70
2022/04/28 01:56:50;;;;;;;11.00;8.90;;;;;;;11.94;52.78;98253.00;5070454;28;20421;-70
2022/04/28 01:59:15;;;;;;;9.93;8.80;;;;;;;11.93;52.73;98253.97;5070399;28;20444;-69
2022/04/28 02:01:41;;;;;;;9.47;8.57;;;;;;;11.89;53.27;98256.03;5062521;28;20295;-70
2022/04/28 02:04:06;;;;;;;10.13;9.10;;;;;;;11.84;53.09;98252.97;5035524;28;20178;-70
2022/04/28 02:06:32;;;;;;;9.40;8.50;;;;;;;11.85;53.09;98257.25;5052212;28;20206;-69
2022/04/28 02:08:57;;;;;;;9.70;8.70;;;;;;;11.85;52.92;98254.63;5053359;28;20230;-71
2022/04/28 02:11:23;;;;;;;9.40;8.40;;;;;;;11.72;53.23;98251.41;5073861;28;20179;-69
2022/04/28 02:13:48;;;;;;;12.33;10.00;;;;;;;11.73;52.85;98253.91;5074184;28;20179;-70
2022/04/28 02:16:14;;;;;;;9.50;8.43;;;;;;;11.71;52.80;98247.97;5072737;28;20198;-70
2022/04/28 02:18:39;;;;;;;10.20;8.40;;;;;;;11.61;53.07;98257.59;5072713;28;20234;-70
2022/04/28 02:21:05;;;;;;;9.33;8.43;;;;;;;11.57;53.59;98250.97;5039315;28;20349;-70
2022/04/28 02:23:30;;;;;;;10.00;8.60;;;;;;;11.57;52.87;98250.97;5056393;28;20262;-69
2022/04/28 02:25:56;;;;;;;11.80;8.60;;;;;;;11.54;53.30;98249.41;5039726;28;20684;-70
2022/04/28 02:28:21;;;;;;;10.30;9.13;;;;;;;11.59;53.21;98255.13;5072597;28;20198;-70
2022/04/28 02:30:47;;;;;;;8.73;7.83;;;;;;;11.60;53.19;98254.16;5073751;28;20269;-71
2022/04/28 02:33:13;;;;;;;10.17;8.03;;;;;;;11.49;53.51;98252.44;5070865;28;20557;-71
2022/04/28 02:35:38;;;;;;;9.50;8.53;;;;;;;11.39;53.41;98263.88;5073721;28;20231;-71
2022/04/28 02:38:04;;;;;;;9.17;8.27;;;;;;;11.39;53.63;98264.72;5073772;28;20444;-70
2022/04/28 02:40:30;;;;;;;9.67;7.93;;;;;;;11.44;53.19;98262.53;5068334;28;20186;-69
2022/04/28 02:42:56;;;;;;;8.50;7.60;;;;;;;11.46;53.04;98271.13;5073453;28;20205;-70
2022/04/28 02:45:21;;;;;;;8.47;7.67;;;;;;;11.44;53.15;98266.94;5082592;28;20420;-73
2022/04/28 02:47:46;;;;;;;9.10;8.20;;;;;;;11.43;52.97;98268.75;5073369;28;20796;-72
2022/04/28 02:50:12;;;;;;;10.00;8.63;;;;;;;11.37;53.09;98274.50;5080693;28;20186;-71
2022/04/28 02:52:38;;;;;;;9.00;8.10;;;;;;;11.29;53.14;98274.34;5073350;28;20210;-71
2022/04/28 02:55:04;;;;;;;9.87;8.20;;;;;;;11.35;53.09;98268.53;5071888;28;20547;-71
2022/04/28 02:57:30;;;;;;;9.63;7.77;;;;;;;11.26;53.27;98274.59;5073524;28;20433;-71
2022/04/28 02:59:57;;;;;;;8.73;7.67;;;;;;;11.22;53.23;98271.41;5074841;28;20607;-71
2022/04/28 03:02:23;;;;;;;9.20;8.13;;;;;;;11.13;53.63;98270.38;5073322;28;20228;-71
2022/04/28 03:04:49;;;;;;;9.43;8.33;;;;;;;11.14;53.44;98273.84;5073348;28;20425;-71
2022/04/28 03:12:42;;;;;;;8.90;8.00;;;;;;;11.15;53.25;98281.59;5072307;28;20456;-71
2022/04/28 03:15:08;;;;;;;10.97;8.60;;;;;;;11.11;53.73;98281.97;5073769;28;20420;-71
2022/04/28 03:17:33;;;;;;;10.00;7.97;;;;;;;11.12;53.48;98294.94;5072958;28;20515;-71
2022/04/28 03:19:59;;;;;;;9.23;8.33;;;;;;;11.08;53.56;98288.31;5072595;28;20961;-68
2022/04/28 03:22:24;;;;;;;9.97;8.60;;;;;;;10.94;53.53;98292.09;5072920;28;20178;-71
2022/04/28 03:24:50;;;;;;;9.10;7.07;;;;;;;11.00;53.66;98294.22;5072645;28;20189;-69
2022/04/28 03:27:15;;;;;;;9.10;8.20;;;;;;;10.94;53.62;98296.50;5072653;28;20233;-69
2022/04/28 03:29:41;;;;;;;13.43;9.37;;;;;;;11.00;53.68;98296.84;5064639;28;20210;-70
2022/04/28 03:32:10;;;;;;;9.97;8.53;;;;;;;11.03;53.01;98287.88;5070069;28;21719;-71
2022/04/28 03:34:36;;;;;;;11.30;8.30;;;;;;;10.93;53.79;98290.41;5074881;28;20185;-69
2022/04/28 03:37:01;;;;;;;11.67;7.93;;;;;;;10.99;53.56;98296.94;5072826;28;20960;-70
2022/04/28 03:39:27;;;;;;;10.60;8.83;;;;;;;10.91;53.47;98290.56;5059828;28;20693;-70
2022/04/28 03:41:53;;;;;;;9.63;8.23;;;;;;;10.93;53.75;98294.84;5072496;28;20181;-70
2022/04/28 03:44:18;;;;;;;13.13;8.30;;;;;;;10.94;53.23;98296.50;5072626;28;20261;-71
2022/04/28 03:46:44;;;;;;;10.27;8.60;;;;;;;10.84;53.54;98289.38;5072607;28;20249;-70
2022/04/28 03:49:10;;;;;;;9.63;8.37;;;;;;;10.84;53.46;98302.50;5064209;28;20207;-70
2022/04/28 03:51:35;;;;;;;17.00;8.80;;;;;;;10.86;53.53;98300.59;5052700;28;20569;-70
2022/04/28 03:54:01;;;;;;;10.47;7.87;;;;;;;10.79;53.50;98299.44;5052902;28;20179;-68
2022/04/28 03:56:31;;;;;;;16.27;8.50;;;;;;;10.82;53.62;98293.94;5052999;28;20562;-72
2022/04/28 03:58:57;;;;;;;10.90;9.10;;;;;;;10.75;53.70;98298.03;5064907;28;20707;-70
2022/04/28 04:01:23;;;;;;;11.67;9.07;;;;;;;10.67;53.77;98296.03;5091482;28;20431;-69
2022/04/28 04:03:49;;;;;;;9.43;7.80;;;;;;;10.70;52.98;98308.06;5092860;28;20428;-70
2022/04/28 04:06:14;;;;;;;10.97;8.77;;;;;;;10.63;53.27;98299.03;5093101;28;20202;-71
2022/04/28 04:08:40;;;;;;;10.03;8.63;;;;;;;10.58;53.94;98302.03;5071924;28;20201;-70
2022/04/28 04:11:05;;;;;;;10.47;8.80;;;;;;;10.72;53.47;98300.88;5078707;28;20178;-70
2022/04/28 04:13:31;;;;;;;9.33;8.10;;;;;;;10.59;53.59;98299.28;5072973;28;20235;-70
2022/04/28 04:15:56;;;;;;;11.17;9.13;;;;;;;10.64;53.83;98296.31;5072036;28;20265;-70
2022/04/28 04:18:22;;;;;;;17.37;9.93;;;;;;;10.73;53.62;98305.19;5071831;28;20202;-70
2022/04/28 04:20:47;;;;;;;10.60;9.07;;;;;;;10.63;53.43;98306.91;5078549;28;20186;-70
2022/04/28 04:23:12;;;;;;;11.83;9.27;;;;;;;10.65;53.50;98310.22;5071673;28;20182;-69
2022/04/28 04:25:38;;;;;;;10.37;9.00;;;;;;;10.59;54.06;98303.69;5071293;28;20182;-70
2022/04/28 04:28:04;;;;;;;9.70;8.47;;;;;;;10.50;53.36;98312.31;5071327;28;20802;-68
2022/04/28 04:33:13;;;;;;;13.07;8.80;;;;;;;10.36;54.33;98319.47;5071075;28;20420;-69
2022/04/28 04:35:39;;;;;;;13.33;9.30;;;;;;;10.40;54.20;98317.47;5073836;28;20424;-69
2022/04/28 04:38:04;;;;;;;10.37;9.00;;;;;;;10.41;53.99;98321.75;5071070;28;20319;-70
2022/04/28 04:40:30;;;;;;;9.97;8.97;;;;;;;10.45;54.07;98323.19;5069323;28;20265;-69
2022/04/28 04:42:55;;;;;;;14.27;10.00;;;;;;;10.46;54.08;98327.44;5068602;28;20660;-72
2022/04/28 04:45:21;;;;;;;11.63;8.80;;;;;;;10.43;54.59;98330.34;5076921;28;20182;-70
2022/04/28 04:47:46;;;;;;;14.30;9.00;;;;;;;10.40;54.43;98330.56;5070793;28;20580;-70
2022/04/28 04:50:12;;;;;;;10.13;8.10;;;;;;;10.42;54.76;98344.41;5072073;28;20189;-70
2022/04/28 04:52:37;;;;;;;11.27;9.10;;;;;;;10.52;54.35;98344.50;5073490;28;20265;-71
2022/04/28 04:55:03;;;;;;;11.60;8.73;;;;;;;10.58;54.44;98342.22;5074711;28;20183;-71
2022/04/28 04:57:29;;;;;;;12.10;9.07;;;;;;;10.59;54.69;98348.28;5070672;28;20202;-71
2022/04/28 04:59:54;;;;;;;12.57;10.10;;;;;;;10.62;54.95;98349.81;5070100;28;20198;-70
2022/04/28 05:02:20;;;;;;;12.77;9.93;;;;;;;10.67;55.01;98351.09;5079627;28;20185;-69
2022/04/28 05:04:46;;;;;;;11.97;10.50;;;;;;;10.68;54.82;98354.56;5069627;28;20175;-69
2022/04/28 05:07:11;;;;;;;16.50;12.07;;;;;;;10.73;55.25;98358.47;5074233;28;20336;-70
2022/04/28 05:09:37;;;;;;;14.67;12.30;;;;;;;10.81;54.65;98355.22;5069800;28;20578;-70
2022/04/28 05:12:06;;;;;;;13.70;12.20;;;;;;;10.81;55.08;98360.47;5078850;28;20178;-70
2022/04/28 05:14:32;;;;;;;27.93;16.43;;;;;;;10.76;55.56;98360.00;5070980;28;20704;-70
2022/04/28 05:16:58;;;;;;;24.77;15.57;;;;;;;10.87;55.48;98362.56;5076964;28;20555;-70
2022/04/28 05:19:24;;;;;;;16.77;13.23;;;;;;;10.95;55.88;98361.13;5070295;28;20213;-70
2022/04/28 05:21:50;;;;;;;22.37;16.90;;;;;;;11.06;55.25;98369.75;5070780;28;20417;-71
2022/04/28 05:24:16;;;;;;;23.17;17.30;;;;;;;11.09;55.42;98367.84;5064313;28;20816;-70
2022/04/28 05:26:42;;;;;;;24.40;19.30;;;;;;;11.19;55.41;98380.09;5070702;28;20205;-70
2022/04/28 05:29:07;;;;;;;22.17;18.63;;;;;;;11.29;55.54;98376.69;5062078;28;20432;-71
2022/04/28 05:31:33;;;;;;;24.73;19.27;;;;;;;11.37;55.01;98382.13;5080882;28;20182;-70
2022/04/28 05:33:58;;;;;;;27.93;23.30;;;;;;;11.46;55.75;98378.75;5076408;28;20270;-69
2022/04/28 05:36:24;;;;;;;28.20;22.10;;;;;;;11.51;54.81;98381.78;5070003;28;20213;-70
2022/04/28 05:38:50;;;;;;;25.20;19.33;;;;;;;11.46;56.11;98385.78;5055654;28;20211;-71
2022/04/28 05:41:15;;;;;;;20.43;17.40;;;;;;;11.60;55.94;98389.84;5058738;28;20448;-70
2022/04/28 05:46:25;;;;;;;21.97;17.10;;;;;;;11.78;55.49;98390.94;5062977;28;20217;-71
2022/04/28 05:48:51;;;;;;;29.43;16.77;;;;;;;11.79;55.83;98387.34;5071811;28;20441;-70
2022/04/28 05:51:18;;;;;;;23.43;16.63;;;;;;;11.93;56.31;98390.56;5064928;28;20425;-70
2022/04/28 05:53:43;;;;;;;24.40;16.30;;;;;;;12.13;55.89;98391.50;5068710;28;20194;-71
2022/04/28 05:56:09;;;;;;;21.37;16.10;;;;;;;12.31;55.95;98391.72;5067663;28;20895;-70
2022/04/28 05:58:34;;;;;;;28.37;17.80;;;;;;;12.52;55.17;98394.25;5076564;28;20255;-70
2022/04/28 06:01:00;;;;;;;20.77;16.67;;;;;;;12.68;55.86;98395.50;5078697;28;20182;-69
2022/04/28 06:03:26;;;;;;;20.87;16.93;;;;;;;12.91;55.47;98393.44;5074459;28;20262;-70
2022/04/28 06:05:52;;;;;;;21.87;17.67;;;;;;;13.04;55.05;98399.28;5074576;28;20178;-70
2022/04/28 06:08:18;;;;;;;21.63;15.23;;;;;;;13.19;54.95;98401.47;5073649;28;20440;-70
2022/04/28 06:10:43;;;;;;;18.10;14.53;;;;;;;13.43;54.89;98403.69;5070248;28;20183;-70
2022/04/28 06:13:09;;;;;;;15.17;13.40;;;;;;;13.51;54.10;98409.09;5068920;28;20613;-70
2022/04/28 06:15:34;;;;;;;16.63;12.73;;;;;;;13.75;54.32;98407.78;5074311;28;20182;-71
2022/04/28 06:18:00;;;;;;;15.00;13.43;;;;;;;13.87;53.29;98411.06;5074101;28;20179;-70
2022/04/28 06:20:25;;;;;;;16.60;13.13;;;;;;;14.12;53.20;98403.47;5075249;28;20181;-70
2022/04/28 06:22:51;;;;;;;18.07;12.77;;;;;;;14.34;53.17;98409.34;5076146;28;20213;-70
2022/04/28 06:25:16;;;;;;;13.90;11.80;;;;;;;14.51;52.10;98407.72;5073850;28;20311;-70
2022/04/28 06:27:42;;;;;;;14.40;12.07;;;;;;;14.74;52.23;98408.19;5077702;28;20209;-70
2022/04/28 06:30:08;;;;;;;12.30;11.07;;;;;;;14.91;51.60;98406.53;5077284;28;20673;-70
2022/04/28 06:32:33;;;;;;;12.37;10.63;;;;;;;15.09;51.21;98410.97;5072775;28;20182;-70
2022/04/28 06:34:59;;;;;;;13.30;10.37;;;;;;;15.23;50.54;98409.59;5073820;28;20190;-70
2022/04/28 06:37:24;;;;;;;15.50;9.73;;;;;;;15.36;49.50;98413.50;5071186;28;20183;-72
2022/04/28 06:39:50;;;;;;;12.97;10.27;;;;;;;15.54;49.42;98415.28;5073028;28;20209;-71
2022/04/28 06:42:15;;;;;;;13.73;10.33;;;;;;;15.71;49.08;98416.22;5064897;28;20182;-71
2022/04/28 06:44:41;;;;;;;13.83;9.80;;;;;;;15.91;48.94;98418.66;5064259;28;20582;-72
2022/04/28 06:47:06;;;;;;;12.47;10.20;;;;;;;16.10;48.78;98420.25;5069163;28;20202;-71
2022/04/28 06:49:33;;;;;;;12.23;8.60;;;;;;;16.30;48.60;98423.50;5073594;28;20202;-71
2022/04/28 06:51:59;;;;;;;15.43;9.60;;;;;;;16.45;47.89;98418.41;5072865;28;20300;-71
2022/04/28 06:54:24;;;;;;;10.70;9.60;;;;;;;16.57;46.80;98422.41;5072978;28;20429;-71
2022/04/28 06:56:50;;;;;;;12.90;10.10;;;;;;;16.71;46.32;98426.28;5073013;28;20227;-70
2022/04/28 06:59:15;;;;;;;11.73;9.80;;;;;;;16.82;46.52;98419.00;5072661;28;20202;-71
2022/04/28 07:01:41;;;;;;;10.87;9.77;;;;;;;16.90;45.62;98421.66;5063267;28;20196;-71
2022/04/28 07:04:06;;;;;;;12.17;10.10;;;;;;;17.03;45.67;98426.53;5080897;28;20269;-70
2022/04/28 07:06:32;;;;;;;13.20;9.07;;;;;;;17.15;45.25;98421.72;5072192;28;20202;-71
2022/04/28 07:08:57;;;;;;;9.80;8.70;;;;;;;17.37;45.17;98427.38;5072496;28;20202;-70
2022/04/28 07:11:24;;;;;;;18.50;9.27;;;;;;;17.51;44.86;98424.06;5063708;28;20183;-70
2022/04/28 07:13:50;;;;;;;10.03;8.83;;;;;;;17.65;44.23;98425.19;5072671;28;20183;-71
2022/04/28 07:16:15;;;;;;;11.73;10.00;;;;;;;17.72;43.55;98430.66;5072364;28;20469;-71
2022/04/28 07:18:40;;;;;;;11.00;9.10;;;;;;;17.87;43.31;98428.13;5072074;28;20202;-70
2022/04/28 07:21:06;;;;;;;11.93;8.43;;;;;;;18.06;42.90;98426.94;5072122;28;20191;-71
2022/04/28 07:23:31;;;;;;;10.73;8.00;;;;;;;18.16;42.46;98424.91;5071793;28;20269;-71
2022/04/28 07:25:57;;;;;;;11.40;8.57;;;;;;;18.14;41.71;98426.09;5072423;28;20269;-70
2022/04/28 07:28:22;;;;;;;11.97;9.17;;;;;;;18.29;41.40;98424.38;5072452;28;20194;-71
2022/04/28 07:30:48;;;;;;;14.60;9.10;;;;;;;18.46;42.20;98427.78;5072122;28;20277;-71
2022/04/28 07:33:13;;;;;;;9.03;8.10;;;;;;;18.70;41.87;98432.16;5072320;28;20190;-71
2022/04/28 07:35:39;;;;;;;10.60;7.88;;;;;;;18.88;41.63;98431.88;5033286;28;1111752;-71
2022/04/28 07:38:05;;;;;;;11.70;8.80;;;;;;;19.02;39.96;98437.47;5073160;28;20198;-70
2022/04/28 07:40:31;;;;;;;10.30;8.10;;;;;;;19.16;39.72;98434.00;5072285;28;20178;-70
2022/04/28 07:42:57;;;;;;;12.17;8.10;;;;;;;19.22;39.04;98432.47;5072087;28;20439;-70
2022/04/28 07:45:22;;;;;;;9.10;8.17;;;;;;;19.31;39.02;98436.75;5071959;28;20417;-71
2022/04/28 07:47:49;;;;;;;12.03;8.27;;;;;;;19.32;38.82;98438.41;5073487;28;20259;-71
2022/04/28 07:50:15;;;;;;;9.57;7.90;;;;;;;19.37;38.93;98443.19;5073947;28;20174;-71
2022/04/28 07:52:41;;;;;;;14.40;8.23;;;;;;;19.46;38.41;98444.75;5073230;28;20516;-70
2022/04/28 07:55:07;;;;;;;10.20;7.80;;;;;;;19.65;38.56;98445.28;5073183;28;20955;-71
2022/04/28 07:57:33;;;;;;;13.57;7.23;;;;;;;19.73;37.39;98445.19;5072604;28;20725;-71
2022/04/28 07:59:58;;;;;;;7.33;6.60;;;;;;;19.77;36.83;98443.81;5079143;28;20440;-70
2022/04/28 08:02:24;;;;;;;6.80;6.07;;;;;;;19.92;35.94;98454.50;5072649;28;20183;-71
2022/04/28 08:04:49;;;;;;;7.23;5.23;;;;;;;19.94;34.73;98451.66;5072796;28;20178;-71
2022/04/28 08:07:15;;;;;;;7.00;5.67;;;;;;;20.16;35.04;98449.09;5072402;28;20714;-71
2022/04/28 08:09:40;;;;;;;6.93;5.67;;;;;;;20.26;33.44;98457.63;5079473;28;20202;-71
2022/04/28 08:12:06;;;;;;;6.83;5.37;;;;;;;20.12;32.56;98455.78;5064293;28;20206;-71
2022/04/28 08:14:32;;;;;;;5.90;5.30;;;;;;;20.16;32.77;98460.56;5072221;28;20244;-71
2022/04/28 08:16:58;;;;;;;5.40;4.90;;;;;;;20.21;31.74;98460.00;5072183;28;20181;-70
2022/04/28 08:19:24;;;;;;;9.03;5.60;;;;;;;20.22;32.66;98453.69;5071666;28;20437;-70
2022/04/28 08:21:50;;;;;;;7.10;5.10;;;;;;;20.58;32.58;98455.56;5072240;28;20562;-70
2022/04/28 08:24:16;;;;;;;13.13;5.47;;;;;;;20.40;31.67;98459.47;5071008;28;20182;-70
2022/04/28 08:26:42;;;;;;;7.80;5.10;;;;;;;20.63;31.66;98461.16;5072426;28;20448;-70
2022/04/28 08:29:08;;;;;;;10.40;5.07;;;;;;;20.33;30.22;98463.84;5078947;28;20493;-70
2022/04/28 08:31:34;;;;;;;5.30;4.77;;;;;;;20.50;30.82;98466.34;5079877;28;20923;-70
2022/04/28 08:34:00;;;;;;;6.10;4.93;;;;;;;20.51;29.68;98462.66;5072384;28;20435;-70
2022/04/28 08:36:25;;;;;;;5.27;4.77;;;;;;;20.67;30.85;98462.44;5079855;28;20260;-71
2022/04/28 08:38:52;;;;;;;5.60;5.10;;;;;;;20.85;30.97;98450.59;5071883;28;20195;-70
2022/04/28 08:41:34;;;;;;;5.77;5.20;;;;;;;21.04;31.14;98457.13;5072085;28;20175;-71
2022/04/28 08:44:05;;;;;;;5.93;4.77;;;;;;;21.35;30.20;98460.50;5069177;28;20413;-70
2022/04/28 08:46:52;;;;;;;6.37;4.73;;;;;;;21.56;30.01;98457.81;5080727;28;20464;-70
2022/04/28 08:49:23;;;;;;;7.33;4.30;;;;;;;21.85;30.47;98453.34;5072660;28;20501;-70
2022/04/28 08:51:50;;;;;;;4.93;4.43;;;;;;;22.09;30.24;98456.56;5071588;28;20461;-71
2022/04/28 08:54:16;;;;;;;5.00;4.33;;;;;;;22.07;28.99;98453.25;5068873;28;20409;-70
2022/04/28 08:56:42;;;;;;;7.87;5.00;;;;;;;22.10;28.37;98460.88;5071666;28;20511;-70
2022/04/28 08:59:07;;;;;;;6.30;4.73;;;;;;;21.88;28.18;98460.13;5071414;28;20205;-69
2022/04/28 09:01:33;;;;;;;5.17;4.67;;;;;;;22.05;28.21;98456.13;5071448;28;20181;-70
2022/04/28 09:04:00;;;;;;;4.87;4.40;;;;;;;21.89;28.47;98464.44;5037225;28;20171;-70
2022/04/28 09:06:29;;;;;;;4.50;4.10;;;;;;;22.07;28.96;98456.78;5061924;28;20197;-70
2022/04/28 09:08:56;;;;;;;4.70;4.30;;;;;;;22.40;28.51;98466.78;5042195;28;20447;-70
2022/04/28 09:11:27;;;;;;;5.30;4.77;;;;;;;22.75;28.02;98473.13;5073295;28;20962;-69
2022/04/28 09:14:09;;;;;;;11.33;4.57;;;;;;;22.83;27.19;98465.75;5071575;28;20428;-70
2022/04/28 09:16:37;;;;;;;6.07;4.77;;;;;;;23.02;26.93;98460.69;5071173;28;20408;-70
2022/04/28 09:19:03;;;;;;;5.97;4.10;;;;;;;23.17;27.27;98460.50;5073372;28;20979;-70
2022/04/28 09:21:30;;;;;;;6.80;4.53;;;;;;;23.03;26.99;98465.00;5069442;28;20498;-70
2022/04/28 09:23:56;;;;;;;12.13;4.20;;;;;;;23.17;26.47;98460.50;5075862;28;20255;-71
2022/04/28 09:26:23;;;;;;;4.27;3.70;;;;;;;22.93;25.93;98459.22;5074330;28;20614;-70
2022/04/28 09:28:48;;;;;;;3.57;3.27;;;;;;;23.15;26.82;98460.72;5078644;28;20198;-71
2022/04/28 09:31:14;;;;;;;3.57;3.30;;;;;;;23.11;24.71;98461.31;5071530;28;20982;-70
2022/04/28 09:33:41;;;;;;;6.07;2.87;;;;;;;23.02;25.28;98458.00;5070879;28;20696;-70
2022/04/28 09:36:08;;;;;;;3.47;3.17;;;;;;;23.39;25.33;98453.16;5078469;28;20186;-71
2022/04/28 09:38:33;;;;;;;6.97;3.63;;;;;;;23.07;24.27;98455.53;5072460;28;20444;-71
2022/04/28 09:43:42;;;;;;;3.90;3.57;;;;;;;;;;5063637;28;20608;-71
2022/04/28 09:46:08;;;;;;;8.00;3.80;;;;;;;23.29;23.78;98452.72;5078222;28;20487;-70
2022/04/28 09:48:36;;;;;;;4.17;3.50;;;;;;;23.04;24.53;98447.09;5074271;28;20255;-71
2022/04/28 09:51:07;;;;;;;4.43;3.50;;;;;;;23.31;24.82;98456.03;5071027;28;20413;-70
2022/04/28 09:53:37;;;;;;;3.70;3.40;;;;;;;23.75;25.13;98451.09;5073854;28;20822;-70
2022/04/28 09:56:06;;;;;;;5.10;2.70;;;;;;;23.48;23.47;98445.75;5083658;28;20829;-71
2022/04/28 09:58:32;;;;;;;7.10;3.93;;;;;;;22.74;24.47;98460.81;5072966;28;20441;-71
2022/04/28 10:01:02;;;;;;;3.53;3.20;;;;;;;23.30;24.80;98454.38;5077168;28;20461;-70
2022/04/28 10:03:30;;;;;;;3.90;3.60;;;;;;;23.41;24.95;98451.09;5080803;28;20404;-70
2022/04/28 10:05:57;;;;;;;4.00;3.60;;;;;;;23.43;24.25;98438.34;5077422;28;20591;-70
2022/04/28 10:08:24;;;;;;;8.23;4.07;;;;;;;23.42;25.02;98452.75;5070889;28;20462;-70
2022/04/28 10:10:53;;;;;;;7.13;4.17;;;;;;;23.69;24.62;98444.69;5065740;28;20430;-71
2022/04/28 10:13:19;;;;;;;3.90;3.60;;;;;;;23.39;23.61;98454.97;5067812;28;20425;-70
2022/04/28 10:15:47;;;;;;;5.83;4.20;;;;;;;23.54;23.68;98450.25;5071161;28;20500;-70
2022/04/28 10:18:13;;;;;;;3.67;3.37;;;;;;;23.93;23.45;98451.25;5069585;28;20490;-71
2022/04/28 10:20:41;;;;;;;4.00;3.60;;;;;;;24.31;23.65;98448.94;5070281;28;20424;-71
2022/04/28 10:23:09;;;;;;;3.53;3.23;;;;;;;24.29;22.65;98445.63;5066145;28;20175;-70
2022/04/28 10:34:14;;;;;;;3.80;3.50;;;;;;;24.07;23.55;98436.00;5059107;28;20499;-70
2022/04/28 10:36:52;;;;;;;3.40;3.10;;;;;;;24.05;22.88;98442.63;5082316;28;20429;-70
2022/04/28 10:39:32;;;;;;;4.10;3.37;;;;;;;24.36;22.49;98447.25;5072383;28;20791;-71
2022/04/28 10:41:57;;;;;;;4.10;3.30;;;;;;;24.51;23.11;98443.50;5074176;28;20424;-70
2022/04/28 10:44:29;;;;;;;3.67;3.20;;;;;;;24.68;22.63;98433.94;5072949;28;20958;-70
2022/04/28 10:47:02;;;;;;;5.10;3.67;;;;;;;24.81;22.47;98432.25;5074022;28;20194;-70
2022/04/28 10:49:36;;;;;;;3.27;3.07;;;;;;;24.95;22.62;98428.44;5083055;28;20853;-70
2022/04/28 10:52:03;;;;;;;4.57;3.30;;;;;;;24.96;22.13;98423.91;5068000;28;20413;-70
2022/04/28 10:54:42;;;;;;;3.47;3.17;;;;;;;24.82;22.30;98417.84;5070790;28;20783;-70
2022/04/28 10:57:07;;;;;;;9.90;3.77;;;;;;;25.13;22.79;98424.22;5080294;28;20503;-71
2022/04/28 10:59:34;;;;;;;4.43;3.10;;;;;;;25.41;23.18;98423.81;5073091;28;20535;-70
2022/04/28 11:02:15;;;;;;;5.23;3.90;;;;;;;24.97;21.67;98431.72;5070267;28;20232;-70
2022/04/28 11:04:42;;;;;;;5.87;3.13;;;;;;;24.91;22.32;98429.94;5082108;28;20424;-70
2022/04/28 11:07:09;;;;;;;3.80;3.50;;;;;;;25.15;22.76;98430.19;5072834;28;20461;-70
2022/04/28 11:09:37;;;;;;;3.30;3.00;;;;;;;25.27;21.53;98431.13;5073341;28;20502;-70
2022/04/28 11:12:17;;;;;;;3.30;3.00;;;;;;;25.56;22.95;98428.88;5065152;28;20886;-70
2022/04/28 11:14:47;;;;;;;11.60;3.20;;;;;;;25.47;21.88;98429.34;5073867;28;20436;-71
2022/04/28 11:17:15;;;;;;;4.50;3.80;;;;;;;24.86;21.11;98428.94;5074288;28;20493;-71
2022/04/28 11:19:41;;;;;;;3.40;3.10;;;;;;;24.81;22.25;98429.59;5080829;28;20441;-71
2022/04/28 11:22:07;;;;;;;3.90;2.70;;;;;;;25.13;22.62;98426.91;5072788;28;20503;-72
2022/04/28 11:24:32;;;;;;;4.00;3.07;;;;;;;25.28;22.14;98432.78;5075979;28;20435;-71
2022/04/28 11:27:00;;;;;;;4.23;3.00;;;;;;;25.59;21.78;98425.72;5079246;28;20198;-71
2022/04/28 11:29:30;;;;;;;3.47;2.90;;;;;;;25.69;21.61;98429.78;5073159;28;20205;-71
2022/04/28 11:31:59;;;;;;;3.60;2.63;;;;;;;25.43;21.62;98427.09;5073707;28;20421;-70
2022/04/28 11:34:24;;;;;;;3.30;2.70;;;;;;;25.54;22.27;98432.78;5073265;28;20500;-71
2022/04/28 11:36:49;;;;;;;7.10;3.07;;;;;;;25.62;21.00;98429.84;5072813;28;20571;-70
2022/04/28 11:39:15;;;;;;;3.27;2.97;;;;;;;25.40;21.51;98432.88;5072463;28;20201;-71
2022/04/28 11:41:41;;;;;;;3.27;2.97;;;;;;;25.41;21.49;98431.06;5062344;28;20657;-70
2022/04/28 11:44:12;;;;;;;2.77;2.50;;;;;;;25.79;22.11;98427.41;5080516;28;20174;-71
2022/04/28 11:46:51;;;;;;;3.50;3.20;;;;;;;25.75;21.23;98427.03;5073473;28;20494;-70
2022/04/28 11:49:17;;;;;;;3.23;2.93;;;;;;;25.25;21.55;98419.78;5055562;28;20439;-71
2022/04/28 11:51:43;;;;;;;4.17;3.00;;;;;;;24.92;21.79;98425.38;5072710;28;20424;-70
2022/04/28 11:54:38;;;;;;;4.23;2.93;;;;;;;25.28;22.66;98427.41;5072767;28;20413;-71